Time;durP1;ratioP1;P1;durP2;ratioP2;P2;SDS_P1;SDS_P2;PMS_P1;PMS_P2;Temp;Humidity;BMP_temperature;BMP_pressure;BME280_temperature;BME280_humidity;BME280_pressure;Samples;Min_cycle;Max_cycle;Signal;HPM_P1;HPM_P2
2023/10/08 00:03:10;;;;;;;5.97;3.00;;;;;;;21.79;68.78;101267.34;8319741;28;20045;-63
2023/10/08 00:07:11;;;;;;;4.50;2.83;;;;;;;21.63;69.10;101278.56;8323235;28;20557;-64
2023/10/08 00:11:12;;;;;;;7.00;2.63;;;;;;;21.55;69.45;101275.91;8333386;28;20578;-64
2023/10/08 00:15:12;;;;;;;6.63;2.45;;;;;;;21.57;69.27;101284.00;8324941;28;20446;-65
2023/10/08 00:19:15;;;;;;;7.82;2.72;;;;;;;21.58;69.30;101278.28;8323940;28;20033;-64
2023/10/08 00:23:17;;;;;;;9.88;2.80;;;;;;;21.44;69.82;101292.94;8322058;28;20050;-61
2023/10/08 00:27:17;;;;;;;5.60;2.85;;;;;;;21.42;69.83;101289.53;8324645;28;20391;-60
2023/10/08 00:31:18;;;;;;;9.85;2.72;;;;;;;21.37;69.84;101286.47;8321138;28;20479;-63
2023/10/08 00:35:20;;;;;;;9.32;3.10;;;;;;;21.33;69.81;101275.03;8309320;28;20107;-62
2023/10/08 00:39:24;;;;;;;8.80;3.00;;;;;;;21.31;70.16;101287.25;8307240;28;20087;-63
2023/10/08 00:43:35;;;;;;;8.67;2.87;;;;;;;21.25;70.50;101290.75;8302327;28;20033;-64
2023/10/08 00:47:42;;;;;;;5.68;2.50;;;;;;;21.14;70.93;101283.00;8307955;28;20284;-65
2023/10/08 00:51:45;;;;;;;8.05;3.13;;;;;;;21.10;71.19;101284.41;8303982;28;20677;-63
2023/10/08 00:55:53;;;;;;;5.05;2.55;;;;;;;20.99;71.81;101294.00;8308242;28;20068;-64
2023/10/08 00:59:55;;;;;;;8.65;2.90;;;;;;;20.93;71.99;101293.88;8314998;28;20512;-63
2023/10/08 01:03:55;;;;;;;9.13;3.78;;;;;;;20.85;72.38;101293.94;8314049;28;20060;-62
2023/10/08 01:07:58;;;;;;;6.88;3.08;;;;;;;20.86;71.93;101287.44;8305499;28;20049;-61
2023/10/08 01:12:22;;;;;;;6.40;2.70;;;;;;;20.84;71.88;101281.25;8316878;28;20121;-64
2023/10/08 01:16:22;;;;;;;7.22;3.03;;;;;;;20.74;72.19;101275.19;8308864;28;20034;-63
2023/10/08 01:20:49;;;;;;;7.65;2.50;;;;;;;20.62;72.72;101290.41;8311354;28;20514;-64
2023/10/08 01:24:48;;;;;;;7.40;2.97;;;;;;;20.52;72.78;101304.41;8306148;28;20041;-62
2023/10/08 01:28:49;;;;;;;9.68;3.20;;;;;;;20.42;72.76;101300.22;8302408;28;20046;-60
2023/10/08 01:32:49;;;;;;;6.57;2.95;;;;;;;20.51;72.26;101296.34;8308879;28;20048;-64
2023/10/08 01:36:50;;;;;;;8.65;2.97;;;;;;;20.53;71.94;101302.53;8305629;28;20045;-64
2023/10/08 01:40:51;;;;;;;7.90;3.30;;;;;;;20.45;71.91;101302.59;8311668;28;20119;-64
2023/10/08 01:44:54;;;;;;;11.30;3.55;;;;;;;20.33;72.51;101295.81;8309353;28;20042;-64
2023/10/08 01:49:03;;;;;;;8.45;3.38;;;;;;;20.18;73.12;101292.16;8316359;28;20100;-64
2023/10/08 01:53:08;;;;;;;6.30;2.55;;;;;;;20.02;73.84;101297.75;8299074;28;20051;-64
2023/10/08 01:57:09;;;;;;;6.43;2.47;;;;;;;19.94;74.21;101308.81;8306063;28;20065;-64
2023/10/08 02:01:12;;;;;;;7.00;2.75;;;;;;;19.74;75.02;101319.41;8306071;28;20417;-64
2023/10/08 02:05:15;;;;;;;8.30;3.03;;;;;;;19.82;74.60;101340.44;8306908;28;20037;-64
2023/10/08 02:09:16;;;;;;;10.77;3.90;;;;;;;19.78;74.66;101318.00;8303865;28;20056;-64
2023/10/08 02:13:16;;;;;;;11.10;3.60;;;;;;;19.84;74.30;101333.72;8311415;28;20038;-64
2023/10/08 02:17:17;;;;;;;9.48;3.15;;;;;;;19.78;74.43;101322.63;8309862;28;20113;-64
2023/10/08 02:21:17;;;;;;;13.00;3.70;;;;;;;19.66;75.02;101313.94;8301824;28;20045;-65
2023/10/08 02:25:18;;;;;;;8.05;3.10;;;;;;;19.59;75.51;101303.88;8306394;28;20519;-63
2023/10/08 02:29:19;;;;;;;11.13;3.47;;;;;;;19.51;75.80;101301.19;8300703;28;20048;-64
2023/10/08 02:33:20;;;;;;;7.63;3.10;;;;;;;19.44;76.00;101314.75;8307280;28;20046;-60
2023/10/08 02:37:20;;;;;;;9.13;2.85;;;;;;;19.32;76.46;101319.78;8320831;28;20499;-60
2023/10/08 02:41:24;;;;;;;10.02;3.20;;;;;;;19.23;77.07;101323.53;8304249;28;20060;-60
2023/10/08 02:45:26;;;;;;;8.20;3.67;;;;;;;19.41;76.13;101315.97;8310160;28;20120;-64
2023/10/08 02:49:30;;;;;;;9.20;3.47;;;;;;;19.48;76.08;101324.31;8316796;28;20041;-64
2023/10/08 02:53:30;;;;;;;7.63;3.50;;;;;;;19.51;75.68;101336.84;8321105;28;20087;-61
2023/10/08 02:57:31;;;;;;;9.73;3.05;;;;;;;19.52;75.62;101333.06;8308082;28;20125;-61
2023/10/08 03:01:33;;;;;;;11.38;3.65;;;;;;;19.48;75.51;101322.44;8312964;28;20504;-60
2023/10/08 03:05:35;;;;;;;8.15;3.20;;;;;;;19.58;75.17;101296.69;8310742;28;20049;-59
2023/10/08 03:09:42;;;;;;;11.77;3.70;;;;;;;19.62;75.12;101322.72;8320916;28;20297;-60
2023/10/08 03:13:46;;;;;;;6.93;3.25;;;;;;;19.57;75.68;101327.91;8314140;28;20096;-59
2023/10/08 03:17:48;;;;;;;6.53;2.97;;;;;;;19.59;75.40;101331.28;8312440;28;20033;-59
2023/10/08 03:21:51;;;;;;;10.15;3.97;;;;;;;19.52;76.05;101340.25;8305033;28;20049;-59
2023/10/08 03:26:00;;;;;;;9.35;3.15;;;;;;;19.48;75.47;101320.75;8299487;28;20088;-60
2023/10/08 03:30:01;;;;;;;7.82;3.10;;;;;;;19.44;76.11;101340.28;8307873;28;20100;-61
2023/10/08 03:34:02;;;;;;;10.45;3.65;;;;;;;19.49;75.94;101340.59;8313716;28;20045;-63
2023/10/08 03:38:18;;;;;;;8.88;4.47;;;;;;;19.62;75.22;101339.16;8309551;28;20088;-63
2023/10/08 03:42:20;;;;;;;13.88;3.92;;;;;;;19.64;75.30;101345.34;8304600;28;20044;-63
2023/10/08 03:46:23;;;;;;;8.30;3.40;;;;;;;19.61;75.47;101353.94;8311519;28;20050;-61
2023/10/08 03:50:32;;;;;;;9.15;3.67;;;;;;;19.58;75.55;101346.06;8302787;28;20048;-60
2023/10/08 03:54:35;;;;;;;7.60;3.22;;;;;;;19.64;75.16;101342.59;8299593;28;20060;-62
2023/10/08 03:58:41;;;;;;;7.63;3.38;;;;;;;19.55;75.64;101341.78;8302210;28;20046;-62
2023/10/08 04:02:46;;;;;;;11.15;4.25;;;;;;;19.49;75.84;101340.59;8316150;28;20424;-62
2023/10/08 04:06:49;;;;;;;11.93;3.47;;;;;;;19.40;76.49;101344.41;8309655;28;20049;-61
2023/10/08 04:11:07;;;;;;;8.63;3.53;;;;;;;19.34;76.79;101342.38;8304513;28;20132;-61
2023/10/08 04:15:08;;;;;;;8.75;3.58;;;;;;;19.37;76.75;101336.53;8315058;28;20046;-62
2023/10/08 04:19:10;;;;;;;9.13;3.85;;;;;;;19.43;76.31;101345.97;8307981;28;20522;-61
2023/10/08 04:23:18;;;;;;;9.48;3.50;;;;;;;19.40;76.94;101349.06;8299607;28;20038;-61
2023/10/08 04:27:21;;;;;;;8.68;3.65;;;;;;;19.30;77.23;101341.03;8302875;28;20037;-61
2023/10/08 04:31:28;;;;;;;9.35;3.72;;;;;;;19.41;76.22;101337.91;8312104;28;20049;-60
2023/10/08 04:35:28;;;;;;;9.32;4.13;;;;;;;19.46;75.92;101351.09;8308907;28;20048;-60
2023/10/08 04:39:32;;;;;;;8.55;3.45;;;;;;;19.48;75.92;101339.94;8312429;28;20045;-61
2023/10/08 04:43:32;;;;;;;13.50;4.18;;;;;;;19.46;75.70;101354.66;8308202;28;20073;-60
2023/10/08 04:47:33;;;;;;;9.45;3.53;;;;;;;19.48;75.42;101351.75;8309342;28;20120;-60
2023/10/08 04:51:43;;;;;;;7.00;3.60;;;;;;;19.48;75.63;101370.94;8300535;28;20128;-60
2023/10/08 04:55:48;;;;;;;9.93;3.60;;;;;;;19.49;75.87;101367.19;8305382;28;20049;-64
2023/10/08 04:59:50;;;;;;;6.80;3.80;;;;;;;19.47;75.74;101363.75;8313112;28;20573;-64
2023/10/08 05:08:32;;;;;;;9.32;3.08;;;;;;;19.56;75.12;101375.53;8445050;27;20594;-61
2023/10/08 05:12:37;;;;;;;9.63;3.83;;;;;;;19.45;75.08;101366.69;8443715;28;20039;-61
2023/10/08 05:17:00;;;;;;;9.07;3.75;;;;;;;19.35;75.78;101366.03;8446041;28;20036;-61
2023/10/08 05:20:59;;;;;;;12.93;4.15;;;;;;;19.15;76.52;101367.41;8443617;28;20032;-61
2023/10/08 05:25:08;;;;;;;9.95;3.22;;;;;;;19.12;76.88;101354.06;8430215;28;20032;-61
2023/10/08 05:30:10;;;;;;;9.57;3.95;;;;;;;19.10;76.48;101350.66;8431418;28;20067;-61
2023/10/08 05:33:59;;;;;;;9.82;3.53;;;;;;;19.11;76.74;101381.66;8428882;28;20046;-61
2023/10/08 05:38:02;;;;;;;10.32;4.00;;;;;;;18.91;77.97;101383.91;8430416;28;20497;-61
2023/10/08 05:42:45;;;;;;;7.70;3.17;;;;;;;18.86;78.10;101369.91;8429967;28;20412;-61
2023/10/08 05:54:57;;;;;;;7.97;3.25;;;;;;;18.66;79.29;101389.59;8403594;27;20337;-61
2023/10/08 05:59:14;;;;;;;7.93;3.80;;;;;;;18.58;79.72;101398.69;8369504;28;20139;-62
2023/10/08 06:03:32;;;;;;;13.70;3.55;;;;;;;18.53;80.02;101403.78;8390674;28;20578;-62
2023/10/08 06:07:47;;;;;;;9.60;3.55;;;;;;;18.34;81.65;101412.31;8396542;28;20453;-64
2023/10/08 06:12:29;;;;;;;10.20;3.67;;;;;;;18.32;82.28;101425.31;8395382;28;20048;-64
2023/10/08 06:16:09;;;;;;;6.55;3.40;;;;;;;18.31;82.34;101423.59;8396651;28;20494;-61
2023/10/08 06:20:11;;;;;;;6.70;3.72;;;;;;;18.19;83.38;101433.16;8414527;28;20087;-61
2023/10/08 06:24:16;;;;;;;10.18;3.83;;;;;;;18.13;83.91;101424.72;8397526;28;20679;-61
2023/10/08 06:28:19;;;;;;;8.68;3.40;;;;;;;18.17;83.65;101432.44;8397825;28;20033;-62
2023/10/08 06:32:22;;;;;;;10.15;3.72;;;;;;;18.26;83.95;101439.66;8398127;28;20036;-62
2023/10/08 06:36:24;;;;;;;7.55;3.53;;;;;;;18.39;83.40;101434.56;8398922;28;20086;-61
2023/10/08 06:40:40;;;;;;;9.25;3.60;;;;;;;18.53;82.71;101444.88;8396031;28;20699;-61
2023/10/08 06:44:45;;;;;;;13.25;4.35;;;;;;;18.61;83.17;101444.03;8395583;28;20037;-61
2023/10/08 06:48:49;;;;;;;8.02;3.47;;;;;;;18.61;83.47;101452.25;8377722;28;20045;-61
2023/10/08 06:52:49;;;;;;;8.25;3.55;;;;;;;18.65;82.35;101443.53;8394658;28;20411;-62
2023/10/08 06:56:51;;;;;;;8.90;3.55;;;;;;;18.88;80.60;101439.06;8397055;28;20045;-62
2023/10/08 07:00:54;;;;;;;8.60;3.67;;;;;;;18.95;81.18;101440.13;8393632;28;20094;-60
2023/10/08 07:04:56;;;;;;;9.75;3.55;;;;;;;18.96;81.36;101444.56;8381885;28;20128;-61
2023/10/08 07:08:59;;;;;;;10.05;4.15;;;;;;;19.01;81.45;101435.81;8354257;28;20040;-60
2023/10/08 07:13:02;;;;;;;14.45;3.70;;;;;;;19.07;80.95;101424.16;8374973;28;20131;-60
2023/10/08 07:17:08;;;;;;;8.45;3.22;;;;;;;19.10;80.84;101410.97;8373904;28;20506;-61
2023/10/08 07:21:12;;;;;;;10.13;3.70;;;;;;;19.21;80.58;101417.94;8373672;28;20052;-61
2023/10/08 07:25:14;;;;;;;9.45;3.60;;;;;;;19.25;80.34;101413.84;8373430;28;20513;-61
2023/10/08 07:29:17;;;;;;;10.27;3.67;;;;;;;19.26;81.17;101421.94;8372779;28;20599;-61
2023/10/08 07:33:18;;;;;;;9.65;3.90;;;;;;;19.28;81.41;101424.50;8370911;28;20529;-60
2023/10/08 07:37:18;;;;;;;10.57;3.97;;;;;;;19.26;81.89;101426.53;8374992;28;20545;-63
2023/10/08 07:41:20;;;;;;;14.30;4.03;;;;;;;19.31;81.44;101435.97;8375057;28;20059;-63
2023/10/08 07:45:21;;;;;;;11.57;4.35;;;;;;;19.36;81.97;101421.72;8373915;28;20437;-63
2023/10/08 07:49:23;;;;;;;6.45;3.80;;;;;;;19.41;81.25;101420.19;8372272;28;20116;-61
2023/10/08 07:53:24;;;;;;;16.85;4.30;;;;;;;19.47;80.85;101426.84;8373306;28;20037;-61
2023/10/08 07:57:26;;;;;;;10.02;3.80;;;;;;;19.52;80.60;101456.50;8372444;28;20037;-62
2023/10/08 08:01:26;;;;;;;11.00;3.67;;;;;;;19.50;80.82;101451.19;8370349;28;20117;-61
2023/10/08 08:05:27;;;;;;;10.95;4.43;;;;;;;19.60;81.02;101451.00;8386529;28;20025;-61
2023/10/08 08:09:28;;;;;;;15.45;4.45;;;;;;;19.71;81.08;101453.34;8349373;28;20040;-61
2023/10/08 08:13:29;;;;;;;9.13;4.05;;;;;;;19.95;80.87;101461.50;8372939;28;20037;-61
2023/10/08 08:17:30;;;;;;;10.18;4.35;;;;;;;20.22;79.02;101448.16;8370271;28;20037;-63
2023/10/08 08:21:31;;;;;;;15.07;4.03;;;;;;;20.50;77.60;101446.63;8373029;28;20487;-64
2023/10/08 08:25:45;;;;;;;15.45;5.22;;;;;;;20.61;77.61;101464.56;8369792;28;20459;-64
2023/10/08 08:29:45;;;;;;;12.93;4.60;;;;;;;20.76;77.48;101468.25;8372018;28;20052;-63
2023/10/08 08:34:02;;;;;;;11.82;3.88;;;;;;;20.86;77.87;101463.38;8368981;28;20299;-64
2023/10/08 08:38:05;;;;;;;10.10;3.55;;;;;;;20.84;76.85;101470.94;8372842;28;20040;-60
2023/10/08 08:42:06;;;;;;;12.63;3.88;;;;;;;20.68;77.52;101482.06;8372811;28;20078;-62
2023/10/08 08:46:09;;;;;;;10.98;4.07;;;;;;;20.72;77.50;101487.00;8369299;28;20510;-61
2023/10/08 08:50:10;;;;;;;10.77;4.32;;;;;;;20.78;76.92;101494.53;8365225;28;20358;-60
2023/10/08 08:54:11;;;;;;;13.73;3.97;;;;;;;21.02;76.49;101490.78;8369372;28;20062;-61
2023/10/08 08:58:12;;;;;;;14.98;4.25;;;;;;;21.29;75.35;101491.03;8371497;28;20175;-62
2023/10/08 09:02:15;;;;;;;12.98;4.78;;;;;;;21.62;73.38;101494.31;8357818;28;20038;-62
2023/10/08 09:06:15;;;;;;;8.95;3.95;;;;;;;21.80;73.26;101503.09;8339040;28;20051;-62
2023/10/08 09:10:25;;;;;;;10.50;3.92;;;;;;;22.57;70.73;101502.44;8340160;28;20033;-62
2023/10/08 09:14:29;;;;;;;20.60;5.53;;;;;;;23.11;68.30;101495.41;8338468;28;20045;-62
2023/10/08 09:18:32;;;;;;;15.45;4.50;;;;;;;22.99;68.57;101510.78;8338875;28;20041;-62
2023/10/08 09:22:32;;;;;;;11.75;4.90;;;;;;;23.70;67.30;101506.09;8338669;28;20041;-62
2023/10/08 09:26:32;;;;;;;17.88;5.18;;;;;;;24.81;64.35;101513.09;8341139;28;20585;-62
2023/10/08 09:30:39;;;;;;;14.50;4.43;;;;;;;24.63;64.02;101516.41;8343637;28;20052;-60
2023/10/08 09:34:40;;;;;;;22.38;5.40;;;;;;;23.59;66.86;101520.47;8335479;28;20527;-60
2023/10/08 09:38:43;;;;;;;11.48;4.75;;;;;;;22.60;71.70;101529.63;8337931;28;20508;-60
2023/10/08 09:42:44;;;;;;;25.48;6.22;;;;;;;22.11;73.86;101539.56;8337802;28;20052;-60
2023/10/08 09:46:52;;;;;;;20.67;7.55;;;;;;;21.80;76.51;101540.81;8339220;28;20045;-60
2023/10/08 09:50:57;;;;;;;35.28;8.02;;;;;;;21.75;77.23;101532.25;8334776;28;20037;-60
2023/10/08 09:55:03;;;;;;;26.85;7.10;;;;;;;22.65;74.79;101538.19;8336208;28;20156;-60
2023/10/08 09:59:04;;;;;;;31.48;6.53;;;;;;;24.48;69.12;101536.97;8333514;28;20132;-60
2023/10/08 10:03:05;;;;;;;25.58;7.30;;;;;;;24.86;66.70;101546.53;8325969;28;20056;-60
2023/10/08 10:07:16;;;;;;;36.03;9.00;;;;;;;24.14;69.53;101548.06;8331540;28;20128;-62
2023/10/08 10:11:17;;;;;;;25.98;8.30;;;;;;;24.63;67.96;101540.44;8333144;28;20041;-64
2023/10/08 10:15:21;;;;;;;29.42;7.95;;;;;;;24.33;68.49;101547.31;8331312;28;20451;-64
2023/10/08 10:19:23;;;;;;;27.85;8.63;;;;;;;24.47;69.05;101552.72;8334700;28;20519;-64
2023/10/08 10:23:43;;;;;;;22.63;8.02;;;;;;;24.52;68.43;101552.13;8338878;28;20597;-64
2023/10/08 10:32:05;;;;;;;31.02;9.25;;;;;;;25.71;65.51;101544.72;8409221;27;20508;-61
2023/10/08 10:36:08;;;;;;;27.58;8.25;;;;;;;26.05;64.27;101546.41;8405676;28;20119;-61
2023/10/08 10:40:12;;;;;;;27.67;7.30;;;;;;;26.03;63.83;101551.31;8405548;28;20587;-61
2023/10/08 10:44:14;;;;;;;21.13;7.60;;;;;;;26.80;62.09;101546.59;8395523;28;20041;-60
2023/10/08 10:48:23;;;;;;;25.38;8.18;;;;;;;27.32;60.62;101535.19;8381423;28;20037;-60
2023/10/08 10:52:44;;;;;;;22.65;8.32;;;;;;;27.13;61.22;101538.06;8379480;28;20065;-61
2023/10/08 10:56:47;;;;;;;20.05;7.85;;;;;;;27.84;59.16;101531.13;8374808;28;20541;-60
2023/10/08 11:00:47;;;;;;;23.35;7.78;;;;;;;27.90;59.30;101533.84;8378512;28;20112;-61
2023/10/08 11:04:48;;;;;;;18.13;7.07;;;;;;;27.76;59.37;101531.41;8379888;28;20510;-61
2023/10/08 11:08:50;;;;;;;22.67;7.60;;;;;;;28.08;59.19;101530.22;8380093;28;20558;-61
2023/10/08 11:12:54;;;;;;;23.83;7.18;;;;;;;27.65;59.71;101521.00;8379686;28;20603;-61
2023/10/08 11:16:55;;;;;;;23.45;7.63;;;;;;;28.00;59.06;101511.91;8380420;28;20045;-60
2023/10/08 11:21:13;;;;;;;18.23;7.70;;;;;;;28.02;58.90;101522.81;8375887;28;20270;-60
2023/10/08 11:25:27;;;;;;;21.40;7.30;;;;;;;28.50;58.44;101529.34;8377040;28;20051;-62
2023/10/08 11:29:28;;;;;;;;;;;;;;;26.91;61.92;101525.59;8379156;28;20114;-61
2023/10/08 11:33:29;;;;;;;22.25;7.65;;;;;;;25.85;64.44;101524.25;8369333;28;19923;-60
2023/10/08 11:37:33;;;;;;;24.17;7.97;;;;;;;24.87;67.71;101506.72;8378622;28;20044;-64
2023/10/08 11:41:49;;;;;;;;;;;;;;;25.44;66.67;101504.25;8366959;28;20041;-64
2023/10/08 11:45:52;;;;;;;24.85;7.72;;;;;;;27.07;62.40;101502.88;8353940;28;20290;-63
2023/10/08 11:50:09;;;;;;;19.50;6.97;;;;;;;27.55;60.99;101509.56;8356121;28;20044;-64
2023/10/08 11:54:11;;;;;;;24.38;7.13;;;;;;;26.67;62.72;101508.66;8352854;28;20299;-64
2023/10/08 11:58:17;;;;;;;22.55;7.63;;;;;;;25.96;64.59;101503.34;8356771;28;20051;-63
2023/10/08 12:02:20;;;;;;;22.60;7.38;;;;;;;26.68;63.73;101498.41;8352746;28;20057;-63
2023/10/08 12:06:21;;;;;;;23.45;6.43;;;;;;;26.66;63.44;101498.63;8356414;28;20140;-63
2023/10/08 12:10:22;;;;;;;21.30;7.28;;;;;;;25.39;67.46;101500.41;8355589;28;20569;-59
2023/10/08 12:14:29;;;;;;;26.35;7.82;;;;;;;24.96;68.43;101488.84;8356055;28;20441;-60
2023/10/08 12:18:30;;;;;;;26.73;7.90;;;;;;;24.59;69.64;101490.25;8345025;28;20040;-61
2023/10/08 12:22:31;;;;;;;24.67;8.75;;;;;;;23.96;72.55;101468.47;8353964;28;20242;-61
2023/10/08 12:26:31;;;;;;;25.63;7.43;;;;;;;23.58;74.07;101469.06;8355073;28;20345;-61
2023/10/08 12:30:41;;;;;;;22.80;6.45;;;;;;;23.77;74.08;101462.81;8354394;28;20052;-61
2023/10/08 12:34:42;;;;;;;22.83;7.65;;;;;;;23.70;75.19;101467.44;8353605;28;20037;-61
2023/10/08 12:38:43;;;;;;;21.10;7.25;;;;;;;23.54;74.19;101467.75;8353120;28;20056;-61
2023/10/08 12:42:44;;;;;;;23.80;6.80;;;;;;;23.42;75.47;101469.38;8353129;28;20041;-61
2023/10/08 12:46:48;;;;;;;23.17;7.57;;;;;;;23.32;75.75;101474.41;8352818;28;20048;-61
2023/10/08 12:50:53;;;;;;;25.73;8.32;;;;;;;23.34;75.61;101466.75;8355143;28;20041;-61
2023/10/08 12:54:55;;;;;;;31.50;8.98;;;;;;;23.44;75.49;101461.72;8354114;28;20037;-60
2023/10/08 12:58:56;;;;;;;18.58;7.50;;;;;;;23.48;74.98;101458.34;8354658;28;20151;-61
2023/10/08 13:02:57;;;;;;;22.38;7.57;;;;;;;23.47;74.80;101450.28;8354543;28;20048;-60
2023/10/08 13:07:01;;;;;;;24.08;7.95;;;;;;;23.67;75.20;101451.28;8351357;28;20037;-61
2023/10/08 13:11:01;;;;;;;21.03;7.67;;;;;;;23.89;74.27;101436.31;8353888;28;20447;-63
2023/10/08 13:15:06;;;;;;;24.63;7.30;;;;;;;24.00;73.89;101427.47;8386930;28;20037;-62
2023/10/08 13:19:08;;;;;;;;;;;;;;;23.71;73.31;101436.00;8353716;28;20050;-61
2023/10/08 13:23:09;;;;;;;27.60;7.03;;;;;;;23.83;74.83;101428.84;8353520;28;20398;-60
2023/10/08 13:27:13;;;;;;;26.17;7.40;;;;;;;23.75;74.82;101424.34;8354526;28;20521;-59
2023/10/08 13:31:16;;;;;;;24.50;6.72;;;;;;;23.51;74.55;101421.22;8353888;28;20037;-61
2023/10/08 13:35:16;;;;;;;20.85;6.75;;;;;;;23.57;76.40;101423.19;8354212;28;20873;-59
2023/10/08 13:39:18;;;;;;;23.10;7.53;;;;;;;23.48;74.88;101407.81;8353609;28;20405;-62
2023/10/08 13:43:18;;;;;;;26.20;7.30;;;;;;;23.71;74.71;101413.91;8353806;28;20036;-62
2023/10/08 13:47:22;;;;;;;22.42;7.75;;;;;;;23.77;73.59;101411.19;8353755;28;20037;-63
2023/10/08 13:51:25;;;;;;;24.98;7.65;;;;;;;23.47;75.41;101403.34;8353282;28;20044;-62
2023/10/08 13:55:25;;;;;;;21.75;7.30;;;;;;;23.40;77.38;101394.16;8352692;28;20053;-63
2023/10/08 13:59:26;;;;;;;23.52;7.22;;;;;;;23.35;80.06;101393.91;8347314;28;20053;-61
2023/10/08 14:03:30;;;;;;;19.77;7.68;;;;;;;23.29;77.24;101389.22;8352346;28;20052;-61
2023/10/08 14:07:31;;;;;;;22.83;7.97;;;;;;;23.37;76.89;101378.00;8349532;28;20388;-61
2023/10/08 14:11:33;;;;;;;24.15;7.68;;;;;;;23.50;76.27;101378.09;8351862;28;20040;-61
2023/10/08 14:15:36;;;;;;;20.90;6.43;;;;;;;23.49;76.81;101376.41;8352795;28;20400;-61
2023/10/08 14:19:43;;;;;;;26.52;6.93;;;;;;;23.62;77.29;101365.41;8351872;28;20068;-61
2023/10/08 14:23:44;;;;;;;18.10;7.07;;;;;;;23.57;76.30;101368.78;8378621;28;20044;-61
2023/10/08 14:27:51;;;;;;;24.77;7.50;;;;;;;23.47;77.59;101376.59;8352408;28;20044;-61
2023/10/08 14:31:55;;;;;;;16.58;7.55;;;;;;;23.37;77.35;101375.25;8347962;28;20048;-61
2023/10/08 14:44:37;;;;;;;23.65;7.97;;;;;;;23.07;80.89;101360.78;8350765;28;20045;-62
2023/10/08 14:48:40;;;;;;;22.23;8.40;;;;;;;22.99;81.69;101353.53;8351606;28;20044;-63
2023/10/08 14:52:40;;;;;;;23.15;8.93;;;;;;;22.85;82.29;101331.56;8351269;28;20048;-63
2023/10/08 14:56:41;;;;;;;25.50;9.98;;;;;;;22.87;82.49;101326.69;8351889;28;20033;-62
2023/10/08 15:00:41;;;;;;;27.77;8.48;;;;;;;22.87;82.79;101321.16;8349936;28;20119;-63
2023/10/08 15:04:42;;;;;;;24.83;8.70;;;;;;;22.95;82.02;101318.25;8351807;28;20394;-64
2023/10/08 15:08:43;;;;;;;27.83;8.32;;;;;;;22.97;81.85;101322.50;8351667;28;20112;-64
2023/10/08 15:12:44;;;;;;;22.65;8.40;;;;;;;22.98;81.09;101318.72;8351111;28;20037;-61
2023/10/08 15:16:51;;;;;;;23.45;8.30;;;;;;;23.03;81.20;101324.47;8354732;28;20036;-60
2023/10/08 15:20:53;;;;;;;20.42;7.43;;;;;;;23.06;79.56;101315.78;8357600;28;20457;-61
2023/10/08 15:24:54;;;;;;;24.85;7.95;;;;;;;23.06;81.51;101334.28;8352142;28;20407;-61
2023/10/08 15:28:54;;;;;;;29.15;9.13;;;;;;;22.83;82.39;101340.03;8357244;28;20379;-61
2023/10/08 15:32:55;;;;;;;20.40;7.50;;;;;;;22.71;83.10;101349.03;8357434;28;20478;-60
2023/10/08 15:36:56;;;;;;;26.63;8.93;;;;;;;22.48;84.15;101348.38;8357535;28;20041;-61
2023/10/08 15:40:58;;;;;;;21.05;8.73;;;;;;;22.37;85.53;101349.75;8356505;28;20041;-62
2023/10/08 15:44:59;;;;;;;24.48;9.40;;;;;;;22.26;86.36;101350.28;8357337;28;20065;-62
2023/10/08 15:49:02;;;;;;;24.10;9.40;;;;;;;22.16;85.77;101344.25;8356631;28;20052;-60
2023/10/08 15:53:04;;;;;;;34.55;10.23;;;;;;;22.10;86.50;101342.25;8356945;28;20526;-61
2023/10/08 15:57:04;;;;;;;25.25;10.05;;;;;;;21.96;87.43;101343.16;8356656;28;20187;-62
2023/10/08 16:01:05;;;;;;;29.48;10.48;;;;;;;21.90;88.31;101343.97;8356406;28;20041;-62
2023/10/08 16:05:07;;;;;;;30.63;11.25;;;;;;;21.78;88.98;101331.72;8356881;28;20043;-62
2023/10/08 16:09:08;;;;;;;29.17;10.68;;;;;;;21.66;89.81;101330.50;8355682;28;20087;-62
2023/10/08 16:13:10;;;;;;;31.27;11.20;;;;;;;21.68;89.67;101339.38;8356447;28;20060;-62
2023/10/08 16:17:13;;;;;;;35.40;12.18;;;;;;;21.61;89.92;101327.44;8356067;28;20559;-62
2023/10/08 16:21:14;;;;;;;29.00;11.10;;;;;;;21.58;89.83;101327.84;8356139;28;20037;-61
2023/10/08 16:25:15;;;;;;;33.63;10.88;;;;;;;21.47;90.07;101314.53;8355773;28;20124;-60
2023/10/08 16:29:16;;;;;;;25.00;11.20;;;;;;;21.38;90.15;101326.72;8355478;28;20074;-60
2023/10/08 16:33:17;;;;;;;34.13;12.15;;;;;;;21.30;90.50;101326.81;8355164;28;20080;-60
2023/10/08 16:37:21;;;;;;;29.02;11.18;;;;;;;21.23;91.10;101323.13;8356016;28;20036;-60
2023/10/08 16:41:21;;;;;;;30.98;10.82;;;;;;;21.05;92.55;101325.41;8352892;28;20175;-60
2023/10/08 16:45:23;;;;;;;29.00;11.55;;;;;;;20.87;94.14;101322.13;8355348;28;20048;-60
2023/10/08 16:49:26;;;;;;;29.63;11.90;;;;;;;20.85;94.45;101324.19;8354776;28;20423;-60
2023/10/08 16:53:28;;;;;;;22.75;10.18;;;;;;;20.81;94.46;101339.34;8354423;28;20049;-61
2023/10/08 16:57:28;;;;;;;28.88;11.05;;;;;;;20.52;97.05;101344.78;8354158;28;20048;-60
2023/10/08 17:01:29;;;;;;;34.97;12.02;;;;;;;20.50;97.49;101336.72;8354056;28;20054;-61
2023/10/08 17:05:30;;;;;;;28.30;12.45;;;;;;;20.61;95.76;101340.91;8354310;28;20041;-60
2023/10/08 17:09:31;;;;;;;30.13;12.63;;;;;;;20.64;94.96;101344.16;8353848;28;20345;-61
2023/10/08 17:13:32;;;;;;;28.42;12.68;;;;;;;20.70;94.53;101337.03;8354471;28;20051;-60
2023/10/08 17:17:33;;;;;;;37.65;12.45;;;;;;;20.67;94.25;101337.41;8354430;28;20037;-60
2023/10/08 17:21:34;;;;;;;30.90;12.07;;;;;;;20.53;94.93;101335.50;8353831;28;20045;-61
2023/10/08 17:25:35;;;;;;;28.67;11.98;;;;;;;20.35;96.61;101326.72;8353780;28;20044;-61
2023/10/08 17:29:35;;;;;;;34.20;12.70;;;;;;;20.26;97.38;101333.31;8352106;28;20068;-60
2023/10/08 17:33:35;;;;;;;30.58;11.07;;;;;;;20.11;97.15;101325.00;8353862;28;20037;-61
2023/10/08 17:37:37;;;;;;;32.90;12.27;;;;;;;19.70;100.00;101314.44;8351797;28;20122;-61
2023/10/08 17:41:38;;;;;;;31.40;12.93;;;;;;;19.68;100.00;101322.84;8351995;28;20091;-61
2023/10/08 17:45:40;;;;;;;31.33;13.45;;;;;;;19.54;100.00;101309.06;8353750;28;20127;-61
2023/10/08 17:49:41;;;;;;;33.88;14.13;;;;;;;19.48;100.00;101308.72;8384785;28;20579;-61
2023/10/08 17:53:41;;;;;;;26.27;11.20;;;;;;;19.14;100.00;101305.41;8351255;28;20410;-61
2023/10/08 17:57:42;;;;;;;27.83;11.82;;;;;;;19.13;100.00;101305.59;8349754;28;20064;-61
2023/10/08 18:01:44;;;;;;;32.30;10.82;;;;;;;18.94;100.00;101295.84;8349732;28;20421;-62
2023/10/08 18:05:45;;;;;;;30.20;11.48;;;;;;;18.91;100.00;101301.69;8349416;28;20067;-62
2023/10/08 18:09:47;;;;;;;36.58;12.52;;;;;;;19.00;100.00;101294.31;8351059;28;20048;-62
2023/10/08 18:13:50;;;;;;;30.08;11.60;;;;;;;18.42;100.00;101294.56;8350626;28;20059;-61
2023/10/08 18:17:52;;;;;;;31.75;11.93;;;;;;;18.57;100.00;101290.13;8383772;28;20119;-62
2023/10/08 18:21:53;;;;;;;30.98;12.15;;;;;;;18.77;100.00;101288.72;8350609;28;20033;-61
2023/10/08 18:25:54;;;;;;;29.88;11.38;;;;;;;18.44;100.00;101287.06;8349839;28;20041;-61
2023/10/08 18:29:55;;;;;;;31.75;11.77;;;;;;;18.47;100.00;101286.72;8350489;28;20418;-61
2023/10/08 18:33:56;;;;;;;40.55;13.80;;;;;;;18.42;100.00;101278.16;8350951;28;20041;-62
2023/10/08 18:38:00;;;;;;;30.90;13.20;;;;;;;18.26;100.00;101275.41;8351110;28;20120;-63
2023/10/08 18:42:00;;;;;;;40.33;12.43;;;;;;;18.24;100.00;101274.69;8350719;28;20048;-65
2023/10/08 18:46:04;;;;;;;35.67;13.60;;;;;;;18.08;100.00;101261.03;8351263;28;20025;-65
2023/10/08 18:50:08;;;;;;;32.70;13.80;;;;;;;18.42;100.00;101261.72;8350950;28;20068;-65
2023/10/08 18:54:09;;;;;;;31.40;13.10;;;;;;;18.28;100.00;101258.78;8390306;28;20039;-60
2023/10/08 18:58:11;;;;;;;33.55;13.23;;;;;;;18.00;100.00;101251.97;8367485;28;20278;-60
2023/10/08 19:02:11;;;;;;;38.47;14.63;;;;;;;18.07;100.00;101245.63;8369661;28;20040;-60
2023/10/08 19:06:12;;;;;;;33.22;13.88;;;;;;;17.87;100.00;101246.97;8356930;28;20033;-62
2023/10/08 19:10:15;;;;;;;37.55;15.10;;;;;;;18.15;100.00;101226.50;8357052;28;20067;-61